Wetterdaten: Woche 31.10.16 - 06.11.16 (KW44)
Datum Zeit Temperatur Luftfeuchte Luftdruck Niederschlag Windrichtung Sonnenschein Solar Wind
31.10.2016 00:00 4,5 C 97 % 1028,1 hPa 0,0 l/m N 0,00 h 0 W/m 3,1 km/h (1 Bft)
31.10.2016 01:00 3,9 C 96 % 1028,0 hPa 0,0 l/m N-NO 0,00 h 0 W/m 6,4 km/h (2 Bft)
31.10.2016 02:00 3,5 C 97 % 1027,6 hPa 0,0 l/m N-NO 0,00 h 0 W/m 5,1 km/h (1 Bft)
31.10.2016 03:00 3,0 C 97 % 1027,5 hPa 0,0 l/m N-NO 0,00 h 0 W/m 7,1 km/h (2 Bft)
31.10.2016 04:00 3,6 C 98 % 1027,5 hPa 0,0 l/m N-NO 0,00 h 0 W/m 6,1 km/h (2 Bft)
31.10.2016 05:00 4,1 C 98 % 1027,3 hPa 0,0 l/m N-NO 0,00 h 0 W/m 5,5 km/h (1 Bft)
31.10.2016 06:00 4,1 C 98 % 1027,2 hPa 0,0 l/m N-NO 0,00 h 0 W/m 6,7 km/h (2 Bft)
31.10.2016 07:00 3,9 C 98 % 1027,3 hPa 0,0 l/m N-NO 0,00 h 18 W/m 8,4 km/h (2 Bft)
31.10.2016 08:00 4,2 C 98 % 1027,5 hPa 0,0 l/m NO 0,00 h 46 W/m 9,7 km/h (2 Bft)
31.10.2016 09:00 5,0 C 99 % 1027,3 hPa 0,0 l/m NO 0,00 h 65 W/m 11,7 km/h (2 Bft)
31.10.2016 10:00 5,8 C 99 % 1027,3 hPa 0,0 l/m O-NO 0,00 h 124 W/m 12,9 km/h (3 Bft)
31.10.2016 11:00 6,9 C 97 % 1026,9 hPa 0,0 l/m O-NO 0,08 h 218 W/m 13,0 km/h (3 Bft)
31.10.2016 12:00 9,1 C 89 % 1026,3 hPa 0,0 l/m NO 1,00 h 467 W/m 13,6 km/h (3 Bft)
31.10.2016 13:00 11,0 C 79 % 1025,7 hPa 0,0 l/m NO 1,00 h 379 W/m 15,4 km/h (3 Bft)
31.10.2016 14:00 12,1 C 73 % 1025,4 hPa 0,0 l/m O-NO 1,00 h 285 W/m 13,0 km/h (3 Bft)
31.10.2016 15:00 12,0 C 71 % 1025,2 hPa 0,0 l/m O-NO 0,75 h 137 W/m 14,0 km/h (3 Bft)
31.10.2016 16:00 10,9 C 74 % 1025,3 hPa 0,0 l/m O-NO 0,08 h 26 W/m 9,8 km/h (2 Bft)
31.10.2016 17:00 8,1 C 86 % 1025,6 hPa 0,0 l/m N 0,00 h 6 W/m 0,3 km/h (0 Bft)
31.10.2016 18:00 6,6 C 91 % 1026,0 hPa 0,0 l/m N 0,00 h 0 W/m 0,1 km/h (0 Bft)
31.10.2016 19:00 5,9 C 91 % 1026,1 hPa 0,0 l/m N 0,00 h 0 W/m 0,4 km/h (0 Bft)
31.10.2016 20:00 5,2 C 92 % 1026,1 hPa 0,0 l/m N 0,00 h 0 W/m 0,0 km/h (0 Bft)
31.10.2016 21:00 4,5 C 92 % 1026,2 hPa 0,0 l/m N 0,00 h 0 W/m 0,0 km/h (0 Bft)
31.10.2016 22:00 3,8 C 93 % 1025,9 hPa 0,0 l/m N 0,00 h 0 W/m 0,0 km/h (0 Bft)
31.10.2016 23:00 3,0 C 94 % 1025,6 hPa 0,0 l/m N 0,00 h 0 W/m 0,0 km/h (0 Bft)
01.11.2016 00:00 2,8 C 95 % 1025,4 hPa 0,0 l/m N 0,00 h 0 W/m 0,0 km/h (0 Bft)
01.11.2016 01:00 3,4 C 96 % 1025,3 hPa 0,0 l/m N 0,00 h 0 W/m 0,0 km/h (0 Bft)
01.11.2016 02:00 4,2 C 97 % 1025,0 hPa 0,0 l/m N 0,00 h 0 W/m 0,0 km/h (0 Bft)
01.11.2016 03:00 4,8 C 98 % 1024,3 hPa 0,0 l/m N 0,00 h 0 W/m 0,0 km/h (0 Bft)
01.11.2016 04:00 5,2 C 98 % 1023,8 hPa 0,2 l/m N 0,00 h 0 W/m 0,0 km/h (0 Bft)
01.11.2016 05:00 5,6 C 98 % 1023,3 hPa 0,0 l/m O-NO 0,00 h 0 W/m 3,3 km/h (1 Bft)
01.11.2016 06:00 6,1 C 98 % 1023,0 hPa 0,0 l/m W-SW 0,00 h 0 W/m 10,5 km/h (2 Bft)
01.11.2016 07:00 5,6 C 98 % 1023,0 hPa 0,0 l/m W-SW 0,00 h 10 W/m 12,1 km/h (2 Bft)
01.11.2016 08:00 5,4 C 99 % 1023,0 hPa 0,0 l/m SW 0,00 h 39 W/m 10,7 km/h (2 Bft)
01.11.2016 09:00 5,6 C 99 % 1023,0 hPa 0,0 l/m W-SW 0,00 h 68 W/m 11,8 km/h (2 Bft)
01.11.2016 10:00 6,2 C 99 % 1022,8 hPa 0,0 l/m W-SW 0,00 h 124 W/m 12,2 km/h (2 Bft)
01.11.2016 11:00 7,1 C 98 % 1022,4 hPa 0,0 l/m SW 0,00 h 185 W/m 11,8 km/h (2 Bft)
01.11.2016 12:00 8,7 C 95 % 1021,5 hPa 0,0 l/m S-SW 0,92 h 390 W/m 11,2 km/h (2 Bft)
01.11.2016 13:00 10,6 C 90 % 1020,3 hPa 0,0 l/m S-SW 1,00 h 372 W/m 10,8 km/h (2 Bft)
01.11.2016 14:00 11,6 C 86 % 1019,4 hPa 0,0 l/m S-SW 1,00 h 250 W/m 10,6 km/h (2 Bft)
01.11.2016 15:00 11,4 C 86 % 1018,6 hPa 0,0 l/m S-SW 0,67 h 132 W/m 10,5 km/h (2 Bft)
01.11.2016 16:00 10,2 C 88 % 1018,1 hPa 0,0 l/m S-SW 0,25 h 37 W/m 10,5 km/h (2 Bft)
01.11.2016 17:00 8,4 C 93 % 1017,9 hPa 0,0 l/m N 0,00 h 5 W/m 1,7 km/h (1 Bft)
01.11.2016 18:00 7,6 C 94 % 1018,0 hPa 0,0 l/m S-SW 0,00 h 0 W/m 4,0 km/h (1 Bft)
01.11.2016 19:00 6,9 C 94 % 1018,0 hPa 0,0 l/m S-SW 0,00 h 0 W/m 1,3 km/h (1 Bft)
01.11.2016 20:00 6,0 C 95 % 1017,8 hPa 0,0 l/m N 0,00 h 0 W/m 0,0 km/h (0 Bft)
01.11.2016 21:00 4,9 C 95 % 1017,9 hPa 0,0 l/m N 0,00 h 0 W/m 0,0 km/h (0 Bft)
01.11.2016 22:00 4,8 C 96 % 1017,7 hPa 0,0 l/m N 0,00 h 0 W/m 0,4 km/h (0 Bft)
01.11.2016 23:00 4,8 C 96 % 1017,7 hPa 0,0 l/m N 0,00 h 0 W/m 0,0 km/h (0 Bft)
02.11.2016 00:00 4,7 C 97 % 1017,7 hPa 0,0 l/m N 0,00 h 0 W/m 0,7 km/h (0 Bft)
02.11.2016 01:00 5,3 C 98 % 1017,7 hPa 0,2 l/m N 0,00 h 0 W/m 0,4 km/h (0 Bft)
02.11.2016 02:00 5,8 C 98 % 1017,7 hPa 0,0 l/m N 0,00 h 0 W/m 0,3 km/h (0 Bft)
02.11.2016 03:00 6,1 C 98 % 1017,4 hPa 0,0 l/m N 0,00 h 0 W/m 0,3 km/h (0 Bft)
02.11.2016 04:00 6,5 C 98 % 1017,2 hPa 0,0 l/m N 0,00 h 0 W/m 0,3 km/h (0 Bft)
02.11.2016 05:00 6,7 C 98 % 1016,9 hPa 0,0 l/m S-SW 0,00 h 0 W/m 1,3 km/h (1 Bft)
02.11.2016 06:00 6,7 C 99 % 1017,0 hPa 0,0 l/m S-SW 0,00 h 0 W/m 0,5 km/h (0 Bft)
02.11.2016 07:00 7,3 C 99 % 1017,3 hPa 0,0 l/m S-SW 0,00 h 11 W/m 6,9 km/h (2 Bft)
02.11.2016 08:00 7,9 C 99 % 1017,5 hPa 0,0 l/m S-SW 0,00 h 29 W/m 7,9 km/h (2 Bft)
02.11.2016 09:00 8,8 C 98 % 1017,4 hPa 0,0 l/m W-SW 0,00 h 101 W/m 15,2 km/h (3 Bft)
02.11.2016 10:00 9,8 C 93 % 1017,3 hPa 0,0 l/m W-SW 0,00 h 97 W/m 12,8 km/h (3 Bft)
02.11.2016 11:00 10,3 C 87 % 1017,0 hPa 0,0 l/m W 0,00 h 110 W/m 13,6 km/h (3 Bft)
02.11.2016 12:00 9,9 C 86 % 1016,7 hPa 0,0 l/m W 0,00 h 40 W/m 13,4 km/h (3 Bft)
02.11.2016 13:00 7,4 C 88 % 1016,9 hPa 0,0 l/m N-NW 0,00 h 52 W/m 13,4 km/h (3 Bft)
02.11.2016 14:00 7,3 C 86 % 1016,9 hPa 0,0 l/m N-NW 0,00 h 54 W/m 15,2 km/h (3 Bft)
02.11.2016 15:00 7,2 C 84 % 1017,1 hPa 0,0 l/m N-NW 0,00 h 35 W/m 8,7 km/h (2 Bft)
02.11.2016 16:00 7,2 C 86 % 1017,3 hPa 0,0 l/m N 0,00 h 13 W/m 9,4 km/h (2 Bft)
02.11.2016 17:00 6,7 C 88 % 1017,7 hPa 0,0 l/m N 0,00 h 0 W/m 8,7 km/h (2 Bft)
02.11.2016 18:00 6,1 C 88 % 1018,2 hPa 0,0 l/m NW 0,00 h 0 W/m 7,1 km/h (2 Bft)
02.11.2016 19:00 5,3 C 88 % 1018,7 hPa 0,0 l/m N-NW 0,00 h 0 W/m 2,5 km/h (1 Bft)
02.11.2016 20:00 4,1 C 88 % 1019,1 hPa 0,0 l/m N-NW 0,00 h 0 W/m 0,9 km/h (0 Bft)
02.11.2016 21:00 3,3 C 92 % 1019,2 hPa 0,0 l/m N 0,00 h 0 W/m 0,8 km/h (0 Bft)
02.11.2016 22:00 2,6 C 92 % 1019,4 hPa 0,0 l/m N 0,00 h 0 W/m 0,4 km/h (0 Bft)
02.11.2016 23:00 2,4 C 94 % 1019,8 hPa 0,0 l/m N 0,00 h 0 W/m 0,0 km/h (0 Bft)
03.11.2016 00:00 1,9 C 94 % 1019,9 hPa 0,0 l/m N-NW 0,00 h 0 W/m 0,7 km/h (0 Bft)
03.11.2016 01:00 1,4 C 94 % 1019,8 hPa 0,0 l/m N 0,00 h 0 W/m 0,0 km/h (0 Bft)
03.11.2016 02:00 0,6 C 94 % 1020,1 hPa 0,0 l/m N 0,00 h 0 W/m 0,0 km/h (0 Bft)
03.11.2016 03:00 -0,0 C 94 % 1020,0 hPa 0,0 l/m N 0,00 h 0 W/m 0,0 km/h (0 Bft)
03.11.2016 04:00 -0,6 C 95 % 1020,4 hPa 0,0 l/m N 0,00 h 0 W/m 0,0 km/h (0 Bft)
03.11.2016 05:00 -1,1 C 95 % 1020,6 hPa 0,0 l/m N 0,00 h 0 W/m 0,0 km/h (0 Bft)
03.11.2016 06:00 -1,4 C 95 % 1021,0 hPa 0,0 l/m N 0,00 h 0 W/m 0,0 km/h (0 Bft)
03.11.2016 07:00 -1,7 C 95 % 1021,7 hPa 0,0 l/m N 0,00 h 22 W/m 0,0 km/h (0 Bft)
03.11.2016 08:00 -1,1 C 96 % 1022,2 hPa 0,0 l/m N 1,00 h 138 W/m 0,0 km/h (0 Bft)
03.11.2016 09:00 1,4 C 97 % 1022,6 hPa 0,0 l/m N 0,92 h 274 W/m 0,0 km/h (0 Bft)
03.11.2016 10:00 4,5 C 90 % 1022,6 hPa 0,0 l/m N-NW 0,92 h 350 W/m 0,3 km/h (0 Bft)
03.11.2016 11:00 7,0 C 77 % 1022,3 hPa 0,0 l/m N 1,00 h 434 W/m 0,1 km/h (0 Bft)
03.11.2016 12:00 8,4 C 63 % 1021,7 hPa 0,0 l/m O-SO 1,00 h 437 W/m 4,9 km/h (1 Bft)
03.11.2016 13:00 8,4 C 61 % 1021,1 hPa 0,0 l/m S-SW 1,00 h 332 W/m 5,8 km/h (1 Bft)
03.11.2016 14:00 8,4 C 63 % 1020,7 hPa 0,0 l/m NO 1,00 h 253 W/m 7,8 km/h (2 Bft)
03.11.2016 15:00 7,9 C 66 % 1020,4 hPa 0,0 l/m O 0,58 h 119 W/m 7,8 km/h (2 Bft)
03.11.2016 16:00 7,0 C 70 % 1020,3 hPa 0,0 l/m O 0,08 h 32 W/m 5,3 km/h (1 Bft)
03.11.2016 17:00 4,6 C 82 % 1020,6 hPa 0,0 l/m N 0,00 h 5 W/m 0,0 km/h (0 Bft)
03.11.2016 18:00 2,8 C 87 % 1020,9 hPa 0,0 l/m N 0,00 h 0 W/m 0,0 km/h (0 Bft)
03.11.2016 19:00 2,1 C 90 % 1021,0 hPa 0,0 l/m N 0,00 h 0 W/m 0,0 km/h (0 Bft)
03.11.2016 20:00 1,2 C 92 % 1020,8 hPa 0,0 l/m N 0,00 h 0 W/m 0,0 km/h (0 Bft)
03.11.2016 21:00 1,0 C 93 % 1020,8 hPa 0,0 l/m N 0,00 h 0 W/m 0,5 km/h (0 Bft)
03.11.2016 22:00 0,7 C 94 % 1020,5 hPa 0,0 l/m N 0,00 h 0 W/m 0,0 km/h (0 Bft)
03.11.2016 23:00 0,4 C 94 % 1020,1 hPa 0,0 l/m O-NO 0,00 h 0 W/m 0,8 km/h (0 Bft)
04.11.2016 00:00 0,2 C 94 % 1019,9 hPa 0,0 l/m O-NO 0,00 h 0 W/m 2,5 km/h (1 Bft)
04.11.2016 01:00 -0,2 C 94 % 1019,7 hPa 0,0 l/m N 0,00 h 0 W/m 0,9 km/h (0 Bft)
04.11.2016 02:00 -0,8 C 94 % 1019,2 hPa 0,0 l/m N 0,00 h 0 W/m 0,1 km/h (0 Bft)
04.11.2016 03:00 -1,3 C 94 % 1018,8 hPa 0,0 l/m N 0,00 h 0 W/m 0,0 km/h (0 Bft)
04.11.2016 04:00 -1,9 C 94 % 1018,6 hPa 0,0 l/m N 0,00 h 0 W/m 0,0 km/h (0 Bft)
04.11.2016 05:00 -2,4 C 94 % 1018,3 hPa 0,0 l/m N 0,00 h 0 W/m 0,0 km/h (0 Bft)
04.11.2016 06:00 -2,8 C 95 % 1017,9 hPa 0,0 l/m N 0,00 h 0 W/m 0,0 km/h (0 Bft)
04.11.2016 07:00 -2,5 C 95 % 1017,7 hPa 0,0 l/m N 0,00 h 15 W/m 0,0 km/h (0 Bft)
04.11.2016 08:00 -1,6 C 96 % 1017,5 hPa 0,0 l/m N 0,00 h 55 W/m 0,0 km/h (0 Bft)
04.11.2016 09:00 0,9 C 98 % 1017,6 hPa 0,0 l/m SO 0,00 h 108 W/m 4,9 km/h (1 Bft)
04.11.2016 10:00 2,0 C 98 % 1017,7 hPa 0,0 l/m SO 0,08 h 143 W/m 6,9 km/h (2 Bft)
04.11.2016 11:00 3,1 C 99 % 1017,1 hPa 0,0 l/m S-SW 0,08 h 207 W/m 11,6 km/h (2 Bft)
04.11.2016 12:00 4,6 C 98 % 1016,1 hPa 0,0 l/m S-SW 0,67 h 324 W/m 9,0 km/h (2 Bft)
04.11.2016 13:00 8,4 C 87 % 1014,9 hPa 0,0 l/m S-SW 0,75 h 330 W/m 8,7 km/h (2 Bft)
04.11.2016 14:00 9,1 C 83 % 1014,1 hPa 0,0 l/m S-SW 0,83 h 276 W/m 6,1 km/h (2 Bft)
04.11.2016 15:00 9,8 C 78 % 1013,5 hPa 0,0 l/m S-SW 0,50 h 139 W/m 6,8 km/h (2 Bft)
04.11.2016 16:00 8,6 C 79 % 1013,1 hPa 0,0 l/m S-SW 0,00 h 22 W/m 2,3 km/h (1 Bft)
04.11.2016 17:00 7,1 C 87 % 1012,5 hPa 0,0 l/m N 0,00 h 0 W/m 0,0 km/h (0 Bft)
04.11.2016 18:00 6,1 C 91 % 1012,4 hPa 0,0 l/m N 0,00 h 0 W/m 0,0 km/h (0 Bft)
04.11.2016 19:00 5,8 C 92 % 1012,1 hPa 0,0 l/m N 0,00 h 0 W/m 0,0 km/h (0 Bft)
04.11.2016 20:00 5,2 C 92 % 1011,7 hPa 0,2 l/m N 0,00 h 0 W/m 0,0 km/h (0 Bft)
04.11.2016 21:00 4,7 C 93 % 1011,3 hPa 0,0 l/m N 0,00 h 0 W/m 0,0 km/h (0 Bft)
04.11.2016 22:00 4,5 C 94 % 1010,7 hPa 0,0 l/m N 0,00 h 0 W/m 0,0 km/h (0 Bft)
04.11.2016 23:00 4,7 C 95 % 1010,1 hPa 0,0 l/m N 0,00 h 0 W/m 0,8 km/h (0 Bft)
05.11.2016 00:00 5,9 C 96 % 1009,6 hPa 0,0 l/m SW 0,00 h 0 W/m 12,2 km/h (2 Bft)
05.11.2016 01:00 7,0 C 91 % 1009,0 hPa 0,0 l/m SW 0,00 h 0 W/m 8,3 km/h (2 Bft)
05.11.2016 02:00 8,0 C 92 % 1008,4 hPa 0,2 l/m W-SW 0,00 h 0 W/m 16,4 km/h (3 Bft)
05.11.2016 03:00 9,3 C 93 % 1007,6 hPa 0,2 l/m W-SW 0,00 h 0 W/m 13,7 km/h (3 Bft)
05.11.2016 04:00 9,0 C 93 % 1006,8 hPa 0,0 l/m SW 0,00 h 0 W/m 17,4 km/h (3 Bft)
05.11.2016 05:00 9,3 C 93 % 1006,3 hPa 0,0 l/m W 0,00 h 0 W/m 21,4 km/h (4 Bft)
05.11.2016 06:00 10,0 C 91 % 1005,0 hPa 0,0 l/m W 0,00 h 0 W/m 24,8 km/h (4 Bft)
05.11.2016 07:00 9,6 C 91 % 1004,5 hPa 0,0 l/m S-SW 0,00 h 11 W/m 8,4 km/h (2 Bft)
05.11.2016 08:00 8,9 C 94 % 1003,7 hPa 0,0 l/m S-SW 0,00 h 43 W/m 11,3 km/h (2 Bft)
05.11.2016 09:00 9,2 C 96 % 1002,5 hPa 0,0 l/m S-SW 0,50 h 172 W/m 9,5 km/h (2 Bft)
05.11.2016 10:00 10,1 C 92 % 1001,2 hPa 0,0 l/m S-SW 0,33 h 196 W/m 8,7 km/h (2 Bft)
05.11.2016 11:00 10,6 C 90 % 1000,4 hPa 0,2 l/m SW 0,00 h 116 W/m 7,6 km/h (2 Bft)
05.11.2016 12:00 10,6 C 91 % 999,7 hPa 0,0 l/m S-SW 0,00 h 111 W/m 3,5 km/h (1 Bft)
05.11.2016 13:00 10,9 C 86 % 999,3 hPa 0,0 l/m SW 0,00 h 156 W/m 12,2 km/h (2 Bft)
05.11.2016 14:00 11,4 C 88 % 998,3 hPa 0,0 l/m SW 0,25 h 149 W/m 12,4 km/h (3 Bft)
05.11.2016 15:00 12,1 C 84 % 998,1 hPa 0,0 l/m W-SW 0,00 h 41 W/m 19,8 km/h (4 Bft)
05.11.2016 16:00 11,4 C 87 % 997,8 hPa 0,0 l/m W-SW 0,00 h 12 W/m 11,2 km/h (2 Bft)
05.11.2016 17:00 10,8 C 92 % 998,1 hPa 2,0 l/m W-SW 0,00 h 0 W/m 11,4 km/h (2 Bft)
05.11.2016 18:00 9,9 C 94 % 998,9 hPa 2,6 l/m N 0,00 h 0 W/m 12,5 km/h (3 Bft)
05.11.2016 19:00 8,7 C 95 % 998,9 hPa 4,6 l/m NW 0,00 h 0 W/m 8,7 km/h (2 Bft)
05.11.2016 20:00 8,0 C 96 % 999,3 hPa 1,0 l/m NW 0,00 h 0 W/m 3,7 km/h (1 Bft)
05.11.2016 21:00 7,7 C 96 % 999,8 hPa 1,4 l/m N-NW 0,00 h 0 W/m 6,8 km/h (2 Bft)
05.11.2016 22:00 7,1 C 97 % 999,5 hPa 0,4 l/m N-NW 0,00 h 0 W/m 4,7 km/h (1 Bft)
05.11.2016 23:00 6,7 C 97 % 1000,0 hPa 0,0 l/m N 0,00 h 0 W/m 0,4 km/h (0 Bft)
06.11.2016 00:00 6,5 C 97 % 999,5 hPa 0,2 l/m N 0,00 h 0 W/m 0,0 km/h (0 Bft)
06.11.2016 01:00 6,3 C 97 % 999,5 hPa 0,8 l/m N 0,00 h 0 W/m 0,0 km/h (0 Bft)
06.11.2016 02:00 6,2 C 97 % 999,6 hPa 1,0 l/m N 0,00 h 0 W/m 0,0 km/h (0 Bft)
06.11.2016 03:00 6,0 C 97 % 999,4 hPa 1,4 l/m N-NW 0,00 h 0 W/m 4,4 km/h (1 Bft)
06.11.2016 04:00 5,2 C 97 % 999,4 hPa 0,4 l/m N-NW 0,00 h 0 W/m 7,0 km/h (2 Bft)
06.11.2016 05:00 4,8 C 97 % 999,7 hPa 1,8 l/m N 0,00 h 0 W/m 6,7 km/h (2 Bft)
06.11.2016 06:00 3,9 C 97 % 1000,0 hPa 0,8 l/m NW 0,00 h 0 W/m 6,7 km/h (2 Bft)
06.11.2016 07:00 3,4 C 97 % 1000,6 hPa 1,0 l/m N 0,00 h 7 W/m 7,9 km/h (2 Bft)
06.11.2016 08:00 2,9 C 97 % 1001,4 hPa 0,6 l/m N 0,00 h 19 W/m 0,4 km/h (0 Bft)
06.11.2016 09:00 2,8 C 97 % 1001,2 hPa 0,6 l/m N-NW 0,00 h 45 W/m 2,5 km/h (1 Bft)
06.11.2016 10:00 3,1 C 97 % 1001,1 hPa 0,0 l/m SW 0,00 h 67 W/m 8,2 km/h (2 Bft)
06.11.2016 11:00 3,2 C 97 % 1001,2 hPa 0,2 l/m SW 0,00 h 48 W/m 10,6 km/h (2 Bft)
06.11.2016 12:00 2,9 C 97 % 1001,2 hPa 0,4 l/m SW 0,00 h 47 W/m 10,9 km/h (2 Bft)
06.11.2016 13:00 2,8 C 97 % 1001,0 hPa 0,4 l/m S-SW 0,00 h 59 W/m 12,4 km/h (3 Bft)
06.11.2016 14:00 2,8 C 97 % 1000,8 hPa 0,0 l/m SW 0,00 h 51 W/m 12,1 km/h (2 Bft)
06.11.2016 15:00 2,8 C 97 % 1001,1 hPa 0,0 l/m S-SW 0,00 h 37 W/m 11,6 km/h (2 Bft)
06.11.2016 16:00 3,1 C 98 % 1001,2 hPa 0,0 l/m S-SW 0,50 h 36 W/m 10,2 km/h (2 Bft)
06.11.2016 17:00 3,1 C 98 % 1001,6 hPa 0,6 l/m S-SW 0,00 h 0 W/m 7,8 km/h (2 Bft)
06.11.2016 18:00 2,4 C 97 % 1002,2 hPa 0,2 l/m W-SW 0,00 h 0 W/m 4,9 km/h (1 Bft)
06.11.2016 19:00 1,8 C 97 % 1002,7 hPa 0,2 l/m W-SW 0,00 h 0 W/m 6,3 km/h (2 Bft)
06.11.2016 20:00 1,7 C 97 % 1002,8 hPa 0,0 l/m N 0,00 h 0 W/m 0,0 km/h (0 Bft)
06.11.2016 21:00 1,6 C 98 % 1003,2 hPa 0,0 l/m N 0,00 h 0 W/m 0,0 km/h (0 Bft)
06.11.2016 22:00 1,7 C 98 % 1003,2 hPa 0,0 l/m N 0,00 h 0 W/m 0,0 km/h (0 Bft)
06.11.2016 23:00 1,9 C 98 % 1003,4 hPa 0,0 l/m N 0,00 h 0 W/m 0,4 km/h (0 Bft)
Min-Datum _ 04.11.16 03.11.16 05.11.16 - - - - 31.10.16
_ Min-Zeit 06:20 13:00 16:10 - - - - 00:05
Minimum _ -2,8 C 58 % 997,7 hPa - - - - 0,0 km/h (0 Bft)
Max-Datum _ 05.11.16 31.10.16 31.10.16 05.11.16 - 31.10.16 31.10.16 05.11.16
_ Max-Zeit 15:10 08:15 00:00 19:05 - 11:55 12:15 06:00
Maximum _ 12,4 C 99 % 1028,3 hPa 4,6 l/m - 0,08 h 587 W/m 30,6 km/h
W-NW (5 Bft)
Durchschnitt _ 5,3 C 92 % 1015,0 hPa #23,8 l/m S-SW #19:45 h 128 W/m 5,5 km/h (1 Bft)